createdAt,value
2022-12-12T00:00:14.016Z,36.10
2022-12-12T00:02:42.717Z,40.83
2022-12-12T00:05:15.124Z,38.03
2022-12-12T00:07:43.756Z,38.97
2022-12-12T00:10:15.260Z,42.40
2022-12-12T00:12:43.377Z,36.27
2022-12-12T00:15:12.081Z,41.10
2022-12-12T00:17:42.432Z,37.87
2022-12-12T00:20:10.885Z,38.87
2022-12-12T00:22:41.382Z,37.97
2022-12-12T00:25:10.253Z,42.80
2022-12-12T00:27:40.378Z,38.13
2022-12-12T00:30:09.656Z,37.20
2022-12-12T00:32:40.410Z,38.87
2022-12-12T00:35:11.283Z,42.53
2022-12-12T00:37:41.824Z,44.57
2022-12-12T00:40:11.372Z,40.27
2022-12-12T00:42:40.969Z,42.70
2022-12-12T00:45:10.281Z,44.10
2022-12-12T00:47:41.199Z,38.77
2022-12-12T00:50:10.271Z,44.63
2022-12-12T00:52:38.595Z,42.40
2022-12-12T00:55:07.488Z,41.97
2022-12-12T00:57:36.007Z,42.93
2022-12-12T01:00:05.971Z,40.40
2022-12-12T01:02:34.229Z,44.80
2022-12-12T01:05:04.920Z,41.13
2022-12-12T01:07:33.032Z,40.83
2022-12-12T01:10:03.606Z,40.30
2022-12-12T01:12:31.676Z,41.70
2022-12-12T01:14:59.886Z,39.40
2022-12-12T01:17:29.874Z,44.47
2022-12-12T01:19:57.933Z,43.00
2022-12-12T01:22:25.958Z,44.43
2022-12-12T01:24:56.939Z,36.30
2022-12-12T01:27:25.346Z,46.73
2022-12-12T01:29:53.561Z,38.30
2022-12-12T01:32:24.218Z,36.80
2022-12-12T01:34:53.652Z,37.23
2022-12-12T01:37:21.751Z,39.67
2022-12-12T01:39:49.819Z,34.90
2022-12-12T01:42:20.372Z,40.63
2022-12-12T01:44:52.499Z,37.60
2022-12-12T01:47:24.306Z,46.20
2022-12-12T01:49:57.457Z,41.73
2022-12-12T01:52:32.802Z,46.10
2022-12-12T01:55:03.567Z,44.57
2022-12-12T01:57:34.570Z,44.03
2022-12-12T02:00:06.240Z,41.20
2022-12-12T02:02:35.841Z,43.37
2022-12-12T02:05:12.882Z,40.30
2022-12-12T02:07:41.365Z,41.40
2022-12-12T02:10:09.778Z,43.53
2022-12-12T02:12:37.868Z,40.33
2022-12-12T02:15:06.720Z,41.40
2022-12-12T02:17:54.585Z,49.63
2022-12-12T02:20:52.144Z,41.73
2022-12-12T02:23:59.448Z,42.83
2022-12-12T02:27:07.877Z,43.50
2022-12-12T02:30:04.447Z,42.83
2022-12-12T02:32:52.959Z,39.00
2022-12-12T02:35:28.704Z,48.97
2022-12-12T02:38:07.941Z,41.63
2022-12-12T02:40:44.134Z,45.83
2022-12-12T02:43:20.319Z,44.30
2022-12-12T02:45:56.222Z,45.10
2022-12-12T02:48:31.622Z,44.30
2022-12-12T02:51:05.899Z,39.37
2022-12-12T02:53:34.518Z,41.17
2022-12-12T02:56:04.985Z,42.20
2022-12-12T02:58:35.454Z,39.67
2022-12-12T03:01:13.440Z,43.53
2022-12-12T03:04:07.556Z,43.57
2022-12-12T03:07:10.392Z,42.33
2022-12-12T03:09:51.679Z,38.20
2022-12-12T03:12:28.829Z,40.80
2022-12-12T03:15:05.005Z,39.23
2022-12-12T03:17:40.207Z,38.67
2022-12-12T03:20:14.607Z,40.40
2022-12-12T03:22:47.026Z,44.63
2022-12-12T03:25:18.953Z,38.63
2022-12-12T03:27:53.642Z,34.70
2022-12-12T03:30:22.611Z,38.20
2022-12-12T03:32:56.500Z,39.70
2022-12-12T03:35:31.645Z,39.93
2022-12-12T03:38:04.019Z,39.30
2022-12-12T03:40:44.919Z,43.93
2022-12-12T03:43:18.690Z,36.40
2022-12-12T03:45:53.545Z,38.03
2022-12-12T03:48:28.533Z,36.70
2022-12-12T03:51:04.528Z,37.97
2022-12-12T03:53:39.603Z,30.70
2022-12-12T03:56:17.196Z,35.40
2022-12-12T03:58:53.468Z,42.13
2022-12-12T04:01:29.005Z,38.13
2022-12-12T04:04:01.379Z,42.87
2022-12-12T04:06:36.092Z,37.60
2022-12-12T04:09:24.485Z,38.60
2022-12-12T04:12:18.546Z,36.20
2022-12-12T04:15:23.264Z,36.40
2022-12-12T04:18:03.180Z,36.97
2022-12-12T04:20:58.241Z,37.90
2022-12-12T04:23:35.742Z,35.60
2022-12-12T04:26:29.160Z,33.50
2022-12-12T04:29:08.238Z,41.20
2022-12-12T04:31:41.732Z,36.73
2022-12-12T04:34:16.984Z,36.23
2022-12-12T04:36:46.739Z,38.20
2022-12-12T04:39:21.984Z,39.43
2022-12-12T04:41:53.100Z,34.17
2022-12-12T04:44:24.413Z,33.83
2022-12-12T04:46:57.237Z,36.63
2022-12-12T04:49:28.896Z,40.77
2022-12-12T04:52:02.717Z,33.17
2022-12-12T04:54:40.964Z,36.80
2022-12-12T04:57:13.132Z,38.80
2022-12-12T04:59:43.387Z,38.13
2022-12-12T05:02:21.537Z,39.47
2022-12-12T05:04:57.255Z,31.50
2022-12-12T05:07:37.873Z,36.80
2022-12-12T05:10:13.177Z,39.73
2022-12-12T05:12:46.490Z,36.83
2022-12-12T05:15:18.544Z,36.03
2022-12-12T05:17:49.032Z,32.77
2022-12-12T05:20:19.658Z,36.33
2022-12-12T05:22:50.044Z,35.40
2022-12-12T05:25:21.584Z,39.77
2022-12-12T05:27:49.759Z,33.27
2022-12-12T05:30:20.436Z,34.77
2022-12-12T05:32:49.325Z,35.80
2022-12-12T05:35:20.174Z,36.43
2022-12-12T05:37:51.871Z,34.93
2022-12-12T05:40:24.357Z,33.17
2022-12-12T05:42:53.208Z,33.27
2022-12-12T05:45:21.434Z,34.77
2022-12-12T05:47:49.589Z,33.70
2022-12-12T05:50:17.883Z,33.27
2022-12-12T05:52:46.081Z,32.87
2022-12-12T05:55:16.773Z,38.27
2022-12-12T05:57:48.335Z,34.60
2022-12-12T06:00:19.282Z,33.03
2022-12-12T06:02:48.191Z,36.83
2022-12-12T06:05:18.945Z,37.10
2022-12-12T06:07:47.188Z,32.20
2022-12-12T06:10:15.476Z,32.37
2022-12-12T06:12:43.611Z,34.43
2022-12-12T06:15:13.505Z,29.47
2022-12-12T06:17:44.007Z,32.17
2022-12-12T06:20:12.669Z,33.20
2022-12-12T06:22:43.395Z,31.30
2022-12-12T06:25:12.773Z,31.30
2022-12-12T06:27:41.202Z,32.17
2022-12-12T06:30:10.847Z,31.97
2022-12-12T06:32:40.349Z,30.97
2022-12-12T06:35:08.891Z,30.10
2022-12-12T06:37:37.372Z,34.40
2022-12-12T06:40:09.337Z,35.03
2022-12-12T06:42:44.676Z,29.37
2022-12-12T06:45:16.322Z,31.87
2022-12-12T06:47:48.068Z,32.33
2022-12-12T06:50:21.859Z,28.83
2022-12-12T06:52:54.314Z,32.53
2022-12-12T06:55:22.431Z,30.33
2022-12-12T06:57:50.624Z,27.43
2022-12-12T07:00:19.526Z,30.57
2022-12-12T07:02:49.120Z,31.90
2022-12-12T07:05:19.786Z,32.23
2022-12-12T07:07:47.917Z,28.43
2022-12-12T07:10:21.329Z,27.87
2022-12-12T07:12:57.284Z,38.83
2022-12-12T07:15:25.679Z,30.20
2022-12-12T07:17:57.225Z,33.30
2022-12-12T07:20:25.399Z,30.53
2022-12-12T07:22:53.601Z,34.90
2022-12-12T07:25:21.847Z,33.57
2022-12-12T07:27:50.005Z,33.67
2022-12-12T07:30:18.190Z,32.17
2022-12-12T07:32:48.438Z,33.93
2022-12-12T07:35:18.075Z,34.90
2022-12-12T07:37:48.363Z,36.23
2022-12-12T07:40:16.648Z,32.63
2022-12-12T07:42:44.851Z,34.50
2022-12-12T07:45:18.111Z,33.90
2022-12-12T07:47:46.779Z,33.30
2022-12-12T07:50:19.128Z,33.73
2022-12-12T07:52:49.409Z,33.37
2022-12-12T07:55:18.259Z,34.13
2022-12-12T07:57:46.424Z,36.43
2022-12-12T08:00:15.733Z,28.37
2022-12-12T08:02:43.861Z,32.47
2022-12-12T08:05:12.328Z,27.70
2022-12-12T08:07:42.361Z,33.17
2022-12-12T08:10:11.018Z,33.17
2022-12-12T08:12:39.209Z,32.23
2022-12-12T08:15:08.421Z,35.70
2022-12-12T08:17:38.975Z,34.07
2022-12-12T08:20:08.175Z,33.53
2022-12-12T08:22:36.269Z,30.83
2022-12-12T08:25:06.634Z,36.87
2022-12-12T08:27:37.086Z,31.03
2022-12-12T08:30:09.689Z,29.33
2022-12-12T08:32:40.392Z,30.60
2022-12-12T08:35:09.667Z,32.43
2022-12-12T08:37:40.196Z,34.33
2022-12-12T08:40:11.160Z,32.87
2022-12-12T08:42:41.807Z,36.07
2022-12-12T08:45:12.953Z,29.70
2022-12-12T08:47:43.894Z,34.60
2022-12-12T08:50:14.140Z,29.90
2022-12-12T08:52:44.916Z,31.60
2022-12-12T08:55:14.726Z,36.57
2022-12-12T08:57:45.635Z,31.10
2022-12-12T09:00:15.024Z,31.10
2022-12-12T09:02:43.566Z,36.47
2022-12-12T09:05:12.112Z,31.17
2022-12-12T09:07:40.480Z,30.30
2022-12-12T09:10:09.741Z,32.87
2022-12-12T09:12:41.811Z,26.27
2022-12-12T09:15:11.309Z,31.27
2022-12-12T09:17:41.986Z,28.40
2022-12-12T09:20:11.263Z,29.90
2022-12-12T09:22:41.836Z,29.30
2022-12-12T09:25:12.333Z,29.60
2022-12-12T09:27:42.087Z,30.73
2022-12-12T09:30:11.465Z,32.97
2022-12-12T09:32:45.088Z,32.07
2022-12-12T09:35:16.079Z,30.13
2022-12-12T09:37:44.319Z,30.50
2022-12-12T09:40:20.677Z,30.40
2022-12-12T09:42:52.429Z,32.80
2022-12-12T09:45:21.673Z,35.13
2022-12-12T09:47:54.616Z,33.43
2022-12-12T09:50:28.201Z,36.80
2022-12-12T09:53:02.184Z,31.57
2022-12-12T09:55:39.842Z,32.73
2022-12-12T09:58:20.678Z,33.63
2022-12-12T10:00:53.138Z,33.27
2022-12-12T10:03:31.110Z,36.97
2022-12-12T10:06:35.879Z,33.37
2022-12-12T10:09:09.793Z,34.67
2022-12-12T10:11:51.584Z,30.53
2022-12-12T10:14:27.565Z,31.33
2022-12-12T10:16:58.650Z,31.40
2022-12-12T10:19:32.032Z,33.53
2022-12-12T10:22:05.831Z,34.37
2022-12-12T10:24:40.717Z,33.13
2022-12-12T10:27:13.417Z,35.10
2022-12-12T10:29:49.012Z,35.53
2022-12-12T10:32:31.957Z,35.07
2022-12-12T10:35:18.824Z,35.20
2022-12-12T10:38:04.502Z,32.27
2022-12-12T10:40:45.509Z,31.77
2022-12-12T10:43:22.349Z,34.60
2022-12-12T10:46:17.401Z,35.63
2022-12-12T10:48:47.020Z,30.73
2022-12-12T10:51:19.808Z,35.00
2022-12-12T10:53:48.463Z,33.13
2022-12-12T10:56:21.621Z,34.23
2022-12-12T10:58:55.225Z,32.77
2022-12-12T11:01:52.217Z,31.70
2022-12-12T11:04:16.749Z,32.80
2022-12-12T11:06:49.197Z,33.20
2022-12-12T11:09:22.703Z,39.00
2022-12-12T11:12:01.967Z,36.40
2022-12-12T11:14:35.029Z,36.47
2022-12-12T11:17:19.859Z,36.20
2022-12-12T11:19:48.248Z,33.40
2022-12-12T11:22:16.925Z,30.37
2022-12-12T11:24:47.474Z,32.97
2022-12-12T11:27:23.702Z,34.90
2022-12-12T11:29:54.000Z,37.97
2022-12-12T11:32:28.244Z,35.37
2022-12-12T11:34:59.477Z,33.00
2022-12-12T11:37:39.099Z,33.60
2022-12-12T11:40:24.560Z,34.03
2022-12-12T11:42:53.307Z,34.43
2022-12-12T11:45:24.917Z,40.37
2022-12-12T11:47:56.565Z,35.90
2022-12-12T11:50:29.240Z,34.40
2022-12-12T11:53:01.425Z,34.53
2022-12-12T11:55:38.746Z,35.10
2022-12-12T11:58:18.032Z,31.20
2022-12-12T12:00:58.167Z,35.63
2022-12-12T12:03:54.473Z,30.87
2022-12-12T12:06:36.129Z,34.13
2022-12-12T12:09:25.775Z,35.47
2022-12-12T12:12:05.217Z,36.43
2022-12-12T12:14:57.791Z,34.70
2022-12-12T12:17:36.615Z,33.87
2022-12-12T12:20:19.646Z,37.00
2022-12-12T12:22:58.795Z,39.13
2022-12-12T12:25:37.169Z,36.70
2022-12-12T12:28:38.536Z,36.37
2022-12-12T12:31:14.781Z,40.87
2022-12-12T12:34:00.618Z,37.43
2022-12-12T12:36:44.314Z,33.20
2022-12-12T12:39:24.046Z,37.77
2022-12-12T12:42:04.393Z,32.40
2022-12-12T12:44:46.731Z,36.97
2022-12-12T12:47:27.863Z,35.63
2022-12-12T12:50:01.815Z,31.43
2022-12-12T12:52:35.922Z,33.17
2022-12-12T12:55:05.447Z,38.33
2022-12-12T12:57:40.206Z,37.30
2022-12-12T13:00:15.951Z,36.70
2022-12-12T13:02:51.905Z,36.30
2022-12-12T13:05:25.459Z,30.43
2022-12-12T13:08:02.235Z,32.53
2022-12-12T13:10:33.986Z,36.37
2022-12-12T13:13:11.934Z,37.57
2022-12-12T13:15:45.689Z,33.17
2022-12-12T13:18:17.727Z,35.37
2022-12-12T13:20:55.882Z,35.67
2022-12-12T13:23:51.273Z,32.53
2022-12-12T13:26:25.606Z,33.10
2022-12-12T13:28:59.596Z,34.47
2022-12-12T13:31:45.269Z,31.10
2022-12-12T13:34:19.311Z,30.27
2022-12-12T13:36:52.432Z,35.00
2022-12-12T13:39:28.743Z,29.60
2022-12-12T13:42:01.918Z,34.70
2022-12-12T13:44:38.949Z,36.63
2022-12-12T13:47:33.424Z,32.07
2022-12-12T13:50:06.564Z,29.67
2022-12-12T13:52:36.598Z,33.83
2022-12-12T13:55:27.047Z,33.43
2022-12-12T13:58:08.108Z,31.23
2022-12-12T14:00:39.880Z,34.33
2022-12-12T14:03:29.949Z,37.33
2022-12-12T14:06:11.701Z,33.50
2022-12-12T14:08:50.272Z,35.63
2022-12-12T14:11:33.471Z,33.00
2022-12-12T14:14:16.569Z,33.73
2022-12-12T14:16:51.745Z,29.67
2022-12-12T14:19:32.713Z,31.20
2022-12-12T14:22:01.176Z,30.87
2022-12-12T14:25:00.477Z,34.30
2022-12-12T14:28:04.952Z,34.60
2022-12-12T14:30:43.117Z,36.67
2022-12-12T14:33:33.177Z,34.07
2022-12-12T14:36:06.674Z,36.13
2022-12-12T14:38:44.893Z,29.17
2022-12-12T14:41:18.022Z,29.60
2022-12-12T14:44:35.226Z,31.03
2022-12-12T14:46:43.039Z,25.30
2022-12-12T14:49:15.765Z,34.63
2022-12-12T14:51:46.315Z,34.90
2022-12-12T14:54:18.509Z,42.03
2022-12-12T14:56:53.147Z,34.07
2022-12-12T14:59:27.416Z,32.63
2022-12-12T15:01:59.887Z,34.50
2022-12-12T15:04:32.058Z,32.33
2022-12-12T15:07:01.717Z,35.57
2022-12-12T15:09:31.057Z,32.87
2022-12-12T15:12:15.001Z,35.57
2022-12-12T15:14:55.354Z,31.67
2022-12-12T15:17:28.483Z,29.27
2022-12-12T15:19:59.477Z,33.50
2022-12-12T15:22:29.882Z,33.30
2022-12-12T15:25:00.390Z,35.93
2022-12-12T15:27:33.561Z,34.77
2022-12-12T15:30:10.329Z,30.87
2022-12-12T15:32:40.700Z,32.60
2022-12-12T15:35:17.883Z,31.17
2022-12-12T15:37:57.748Z,32.87
2022-12-12T15:40:30.730Z,34.03
2022-12-12T15:43:01.564Z,34.00
2022-12-12T15:45:35.356Z,36.33
2022-12-12T15:48:04.255Z,34.50
2022-12-12T15:50:39.945Z,37.07
2022-12-12T15:53:20.687Z,39.57
2022-12-12T15:55:57.815Z,41.10
2022-12-12T15:58:29.980Z,39.47
2022-12-12T16:01:21.226Z,40.73
2022-12-12T16:03:58.680Z,40.33
2022-12-12T16:06:28.450Z,40.07
2022-12-12T16:09:02.739Z,42.30
2022-12-12T16:11:45.431Z,42.07
2022-12-12T16:14:39.720Z,46.13
2022-12-12T16:17:13.370Z,57.60
2022-12-12T16:19:47.266Z,59.87
2022-12-12T16:22:31.199Z,71.07
2022-12-12T16:25:14.368Z,77.00
2022-12-12T16:27:42.587Z,74.33
2022-12-12T16:30:13.345Z,71.27
2022-12-12T16:32:43.382Z,64.73
2022-12-12T16:35:16.534Z,59.33
2022-12-12T16:37:45.728Z,53.53
2022-12-12T16:40:17.572Z,45.77
2022-12-12T16:42:48.973Z,47.93
2022-12-12T16:45:19.685Z,41.50
2022-12-12T16:47:49.537Z,42.07
2022-12-12T16:50:17.849Z,40.13
2022-12-12T16:52:46.166Z,39.93
2022-12-12T16:55:20.612Z,36.90
2022-12-12T16:57:48.821Z,38.63
2022-12-12T17:00:19.888Z,35.50
2022-12-12T17:02:49.415Z,33.20
2022-12-12T17:05:23.637Z,32.50
2022-12-12T17:07:52.723Z,32.97
2022-12-12T17:10:21.641Z,29.13
2022-12-12T17:12:49.803Z,32.37
2022-12-12T17:15:22.222Z,31.50
2022-12-12T17:17:52.278Z,30.60
2022-12-12T17:20:20.538Z,32.50
2022-12-12T17:22:48.978Z,28.53
2022-12-12T17:25:21.480Z,28.57
2022-12-12T17:27:50.166Z,32.67
2022-12-12T17:30:19.892Z,26.23
2022-12-12T17:35:35.224Z,26.90
2022-12-12T17:38:03.393Z,30.73
2022-12-12T17:40:33.903Z,31.63
2022-12-12T17:43:03.891Z,28.73
2022-12-12T17:45:32.127Z,28.57
2022-12-12T17:48:00.314Z,28.70
2022-12-12T17:50:28.464Z,29.03
2022-12-12T17:52:57.954Z,27.67
2022-12-12T17:55:54.013Z,26.60
2022-12-12T17:58:14.242Z,33.00
2022-12-12T18:00:42.440Z,29.73
2022-12-12T18:03:13.520Z,30.20
2022-12-12T18:05:41.872Z,28.70
2022-12-12T18:08:12.684Z,28.67
2022-12-12T18:10:40.928Z,28.23
2022-12-12T18:13:09.022Z,28.83
2022-12-12T18:15:37.242Z,30.13
2022-12-12T18:18:05.459Z,31.57
2022-12-12T18:20:35.812Z,29.47
2022-12-12T18:23:03.971Z,29.33
2022-12-12T18:25:36.379Z,27.23
2022-12-12T18:28:07.078Z,26.33
2022-12-12T18:30:37.303Z,30.43
2022-12-12T18:33:07.853Z,27.27
2022-12-12T18:35:38.443Z,29.60
2022-12-12T18:38:08.601Z,26.97
2022-12-12T18:40:39.257Z,28.77
2022-12-12T18:43:07.439Z,28.10
2022-12-12T18:45:37.515Z,28.30
2022-12-12T18:48:07.924Z,30.40
2022-12-12T18:50:36.091Z,35.37
2022-12-12T18:53:06.759Z,29.13
2022-12-12T18:55:35.247Z,31.17
2022-12-12T18:58:04.758Z,29.40
2022-12-12T19:00:33.166Z,31.77
2022-12-12T19:03:05.536Z,27.00
2022-12-12T19:05:33.794Z,29.03
2022-12-12T19:08:01.939Z,29.03
2022-12-12T19:10:30.248Z,31.93
2022-12-12T19:12:58.404Z,25.53
2022-12-12T19:15:27.991Z,26.23
2022-12-12T19:17:56.986Z,29.93
2022-12-12T19:20:27.750Z,31.73
2022-12-12T19:22:57.203Z,27.80
2022-12-12T19:25:25.388Z,25.50
2022-12-12T19:27:53.532Z,28.00
2022-12-12T19:30:21.810Z,26.80
2022-12-12T19:32:51.290Z,28.03
2022-12-12T19:35:19.463Z,26.97
2022-12-12T19:37:49.706Z,25.97
2022-12-12T19:40:18.232Z,26.63
2022-12-12T19:42:46.641Z,34.73
2022-12-12T19:45:15.035Z,25.43
2022-12-12T19:48:14.467Z,26.93
2022-12-12T19:50:42.717Z,27.10
2022-12-12T19:53:12.123Z,27.77
2022-12-12T19:55:47.896Z,30.00
2022-12-12T19:58:16.144Z,27.90
2022-12-12T20:00:47.365Z,31.43
2022-12-12T20:03:17.172Z,26.43
2022-12-12T20:05:51.996Z,26.37
2022-12-12T20:08:21.884Z,29.80
2022-12-12T20:10:50.037Z,29.10
2022-12-12T20:13:20.551Z,25.63
2022-12-12T20:15:48.756Z,27.87
2022-12-12T20:18:18.334Z,27.97
2022-12-12T20:20:46.467Z,27.07
2022-12-12T20:23:14.666Z,26.67
2022-12-12T20:25:45.085Z,24.07
2022-12-12T20:28:15.818Z,26.70
2022-12-12T20:30:50.723Z,26.17
2022-12-12T20:33:22.848Z,25.77
2022-12-12T20:35:51.095Z,26.97
2022-12-12T20:38:21.721Z,25.70
2022-12-12T20:40:52.374Z,25.63
2022-12-12T20:43:23.348Z,26.13
2022-12-12T20:45:54.399Z,28.97
2022-12-12T20:48:24.015Z,27.10
2022-12-12T20:51:45.525Z,28.43
2022-12-12T20:54:04.906Z,25.23
2022-12-12T20:56:35.953Z,23.03
2022-12-12T20:59:08.409Z,31.40
2022-12-12T21:01:39.619Z,26.70
2022-12-12T21:04:12.408Z,26.53
2022-12-12T21:06:47.929Z,25.30
2022-12-12T21:09:23.362Z,25.47
2022-12-12T21:11:56.503Z,26.70
2022-12-12T21:14:25.004Z,28.93
2022-12-12T21:16:56.056Z,26.73
2022-12-12T21:19:25.582Z,25.10
2022-12-12T21:21:54.797Z,30.17
2022-12-12T21:24:25.489Z,27.23
2022-12-12T21:26:56.057Z,24.93
2022-12-12T21:29:24.122Z,25.53
2022-12-12T21:31:52.880Z,26.53
2022-12-12T21:34:22.745Z,28.83
2022-12-12T21:36:56.242Z,25.70
2022-12-12T21:39:29.084Z,25.00
2022-12-12T21:41:57.576Z,28.27
2022-12-12T21:44:26.348Z,27.10
2022-12-12T21:46:54.721Z,34.30
2022-12-12T21:49:31.029Z,25.07
2022-12-12T21:52:02.761Z,27.77
2022-12-12T21:54:31.663Z,28.67
2022-12-12T21:57:01.605Z,25.80
2022-12-12T21:59:32.587Z,28.93
2022-12-12T22:02:03.073Z,22.90
2022-12-12T22:04:31.478Z,28.03
2022-12-12T22:07:01.082Z,28.23
2022-12-12T22:09:31.255Z,27.17
2022-12-12T22:12:04.274Z,30.27
2022-12-12T22:14:36.269Z,26.83
2022-12-12T22:17:05.437Z,27.80
2022-12-12T22:19:33.536Z,23.43
2022-12-12T22:22:03.242Z,27.53
2022-12-12T22:24:31.666Z,28.80
2022-12-12T22:27:02.432Z,27.90
2022-12-12T22:29:33.200Z,24.63
2022-12-12T22:32:01.466Z,26.03
2022-12-12T22:34:31.774Z,28.73
2022-12-12T22:37:03.865Z,31.67
2022-12-12T22:39:32.014Z,29.27
2022-12-12T22:42:00.183Z,30.30
2022-12-12T22:44:28.484Z,32.37
2022-12-12T22:46:57.237Z,26.70
2022-12-12T22:49:26.881Z,29.50
2022-12-12T22:51:56.147Z,30.50
2022-12-12T22:54:25.984Z,26.97
2022-12-12T22:56:54.482Z,26.07
2022-12-12T22:59:22.655Z,26.03
2022-12-12T23:01:50.792Z,27.47
2022-12-12T23:04:21.289Z,28.73
2022-12-12T23:06:51.836Z,30.73
2022-12-12T23:09:22.371Z,29.93
2022-12-12T23:11:54.723Z,27.60
2022-12-12T23:14:26.749Z,25.33
2022-12-12T23:16:57.342Z,27.53
2022-12-12T23:19:28.915Z,28.57
2022-12-12T23:21:59.240Z,27.20
2022-12-12T23:24:27.362Z,32.50
2022-12-12T23:26:56.878Z,32.03
2022-12-12T23:29:27.451Z,35.77
2022-12-12T23:31:58.615Z,37.80
2022-12-12T23:34:27.170Z,39.43
2022-12-12T23:36:56.717Z,39.57
2022-12-12T23:39:27.836Z,41.53
2022-12-12T23:41:57.428Z,40.37
2022-12-12T23:44:25.953Z,30.80
2022-12-12T23:46:54.091Z,39.00
2022-12-12T23:49:23.919Z,27.53
2022-12-12T23:51:53.810Z,32.07
2022-12-12T23:54:27.230Z,29.93
2022-12-12T23:56:57.695Z,28.90
2022-12-12T23:59:26.308Z,28.83
